Terminal Aerodrome Forecast
Issued by NWS

Home | Current Version | Previous Version | Graphics & Text | Print | Product List | Glossary On
Versions: 1 2 3 4 5 6 7 8 9 10 11 12 13 14 15 16 17 18 19 20
000
FTUS42 KMHX 170320 AAA
TAFOAJ
TAF AMD
KOAJ 170320Z 1703/1724 VRB03KT P6SM SCT020 BKN100
      TEMPO 1707/1711 4SM BR BKN025
     FM171100 00000KT P6SM BKN025
     FM171700 23005KT P6SM BKN015
     FM172200 21006KT P6SM BKN110
      AMD LTD TO CLD VIS AND WIND=

USA.gov is the U.S. government's official web portal to all federal, state and local government web resources and services.